createdAt,value
2023-04-09T00:01:31.898Z,101188.13
2023-04-09T00:03:59.860Z,101188.13
2023-04-09T00:06:27.960Z,101178.50
2023-04-09T00:08:55.857Z,101179.44
2023-04-09T00:11:23.697Z,101184.63
2023-04-09T00:13:51.442Z,101182.88
2023-04-09T00:16:19.291Z,101179.44
2023-04-09T00:18:47.244Z,101174.13
2023-04-09T00:21:16.472Z,101184.03
2023-04-09T00:23:44.272Z,101171.81
2023-04-09T00:26:12.196Z,101170.97
2023-04-09T00:28:40.624Z,101176.44
2023-04-09T00:31:09.811Z,101170.16
2023-04-09T00:33:37.679Z,101168.47
2023-04-09T00:36:06.146Z,101171.97
2023-04-09T00:38:33.952Z,101163.97
2023-04-09T00:41:01.851Z,101165.69
2023-04-09T00:43:30.257Z,101163.97
2023-04-09T00:46:00.764Z,101164.69
2023-04-09T00:48:28.870Z,101160.56
2023-04-09T00:50:57.402Z,101163.09
2023-04-09T00:53:26.012Z,101172.84
2023-04-09T00:55:55.847Z,101177.19
2023-04-09T00:58:23.921Z,101174.66
2023-04-09T01:00:51.712Z,101176.31
2023-04-09T01:03:19.863Z,101182.59
2023-04-09T01:06:04.255Z,101177.25
2023-04-09T01:09:01.077Z,101168.53
2023-04-09T01:12:11.555Z,101167.84
2023-04-09T01:14:55.983Z,101170.56
2023-04-09T01:17:39.495Z,101175.03
2023-04-09T01:20:35.464Z,101174.16
2023-04-09T01:23:37.614Z,101173.44
2023-04-09T01:26:45.721Z,101171.75
2023-04-09T01:29:15.929Z,101160.38
2023-04-09T01:31:45.225Z,101179.84
2023-04-09T01:34:15.609Z,101163.16
2023-04-09T01:36:51.799Z,101161.38
2023-04-09T01:39:20.859Z,101171.13
2023-04-09T01:41:50.897Z,101165.84
2023-04-09T01:44:20.017Z,101166.66
2023-04-09T01:46:49.348Z,101172.00
2023-04-09T01:49:18.726Z,101159.78
2023-04-09T01:51:48.448Z,101170.44
2023-04-09T01:54:17.318Z,101174.88
2023-04-09T01:56:48.235Z,101173.94
2023-04-09T01:59:16.940Z,101168.69
2023-04-09T02:01:50.230Z,101171.25
2023-04-09T02:04:36.865Z,101181.81
2023-04-09T02:07:38.231Z,101175.81
2023-04-09T02:10:09.699Z,101167.91
2023-04-09T02:12:41.918Z,101171.47
2023-04-09T02:15:10.438Z,101183.94
2023-04-09T02:17:38.521Z,101166.28
2023-04-09T02:20:07.557Z,101169.81
2023-04-09T02:22:35.355Z,101175.09
2023-04-09T02:25:03.998Z,101165.41
2023-04-09T02:27:31.849Z,101169.88
2023-04-09T02:29:59.602Z,101175.16
2023-04-09T02:32:27.486Z,101169.88
2023-04-09T02:34:55.648Z,101152.19
2023-04-09T02:37:23.631Z,101147.91
2023-04-09T02:39:51.449Z,101161.88
2023-04-09T02:42:20.092Z,101165.41
2023-04-09T02:44:47.936Z,101154.88
2023-04-09T02:47:16.119Z,101157.47
2023-04-09T02:49:44.256Z,101161.13
2023-04-09T02:52:13.215Z,101166.41
2023-04-09T02:54:41.024Z,101175.34
2023-04-09T02:57:08.981Z,101162.16
2023-04-09T02:59:39.037Z,101169.28
2023-04-09T03:02:07.097Z,101167.38
2023-04-09T03:04:34.999Z,101161.28
2023-04-09T03:07:02.823Z,101165.69
2023-04-09T03:09:31.137Z,101163.03
2023-04-09T03:11:58.988Z,101163.97
2023-04-09T03:14:27.140Z,101165.69
2023-04-09T03:16:55.445Z,101157.75
2023-04-09T03:19:23.494Z,101152.41
2023-04-09T03:21:51.405Z,101172.84
2023-04-09T03:24:23.041Z,101150.97
2023-04-09T03:26:51.282Z,101159.84
2023-04-09T03:29:20.368Z,101151.81
2023-04-09T03:31:48.463Z,101146.63
2023-04-09T03:34:16.512Z,101152.84
2023-04-09T03:36:48.118Z,101151.22
2023-04-09T03:39:24.023Z,101156.56
2023-04-09T03:41:52.263Z,101151.44
2023-04-09T03:44:20.295Z,101162.19
2023-04-09T03:47:02.111Z,101154.50
2023-04-09T03:49:30.241Z,101157.22
2023-04-09T03:52:07.350Z,101152.69
2023-04-09T03:54:38.878Z,101151.16
2023-04-09T03:57:12.980Z,101146.66
2023-04-09T03:59:43.455Z,101152.84
2023-04-09T04:02:12.589Z,101144.13
2023-04-09T04:04:46.386Z,101149.53
2023-04-09T04:07:14.329Z,101154.84
2023-04-09T04:09:48.573Z,101158.38
2023-04-09T04:12:19.439Z,101141.75
2023-04-09T04:15:13.365Z,101158.50
2023-04-09T04:17:46.487Z,101140.91
2023-04-09T04:20:23.508Z,101144.44
2023-04-09T04:23:03.939Z,101156.72
2023-04-09T04:25:32.093Z,101151.50
2023-04-09T04:28:01.216Z,101154.91
2023-04-09T04:30:37.786Z,101163.75
2023-04-09T04:33:09.191Z,101156.78
2023-04-09T04:35:44.988Z,101154.22
2023-04-09T04:38:30.293Z,101157.84
2023-04-09T04:41:01.051Z,101158.03
2023-04-09T04:43:29.901Z,101165.97
2023-04-09T04:46:00.422Z,101161.69
2023-04-09T04:48:32.072Z,101169.75
2023-04-09T04:51:02.286Z,101175.16
2023-04-09T04:53:38.693Z,101175.44
2023-04-09T04:56:15.795Z,101176.38
2023-04-09T04:58:55.601Z,101179.19
2023-04-09T05:01:23.531Z,101173.13
2023-04-09T05:03:51.740Z,101177.59
2023-04-09T05:06:30.188Z,101179.41
2023-04-09T05:08:59.297Z,101179.50
2023-04-09T05:11:29.679Z,101180.38
2023-04-09T05:13:57.721Z,101174.28
2023-04-09T05:16:25.637Z,101171.63
2023-04-09T05:19:01.966Z,101166.47
2023-04-09T05:21:29.912Z,101190.28
2023-04-09T05:23:59.087Z,101188.50
2023-04-09T05:26:27.051Z,101171.84
2023-04-09T05:28:58.395Z,101177.31
2023-04-09T05:31:26.878Z,101190.53
2023-04-09T05:33:59.524Z,101196.81
2023-04-09T05:36:36.901Z,101194.22
2023-04-09T05:39:04.869Z,101200.50
2023-04-09T05:41:33.630Z,101187.31
2023-04-09T05:44:19.882Z,101197.97
2023-04-09T05:46:49.017Z,101197.91
2023-04-09T05:49:21.167Z,101196.16
2023-04-09T05:51:52.588Z,101194.53
2023-04-09T05:54:26.350Z,101191.72
2023-04-09T05:56:54.424Z,101203.19
2023-04-09T05:59:22.876Z,101198.69
2023-04-09T06:01:50.690Z,101202.97
2023-04-09T06:04:18.686Z,101194.97
2023-04-09T06:06:47.191Z,101209.94
2023-04-09T06:09:15.683Z,101211.66
2023-04-09T06:11:43.806Z,101203.59
2023-04-09T06:14:16.602Z,101204.38
2023-04-09T06:16:44.602Z,101208.63
2023-04-09T06:19:13.027Z,101197.09
2023-04-09T06:21:41.042Z,101198.75
2023-04-09T06:24:08.846Z,101210.09
2023-04-09T06:26:36.898Z,101205.47
2023-04-09T06:29:04.911Z,101193.84
2023-04-09T06:31:33.552Z,101199.13
2023-04-09T06:34:01.532Z,101212.34
2023-04-09T06:36:30.417Z,101207.06
2023-04-09T06:38:59.090Z,101211.41
2023-04-09T06:41:27.022Z,101209.63
2023-04-09T06:43:55.279Z,101208.63
2023-04-09T06:46:23.547Z,101218.22
2023-04-09T06:48:51.551Z,101219.00
2023-04-09T06:51:19.588Z,101204.03
2023-04-09T06:53:48.416Z,101220.66
2023-04-09T06:56:16.511Z,101220.72
2023-04-09T06:58:44.357Z,101216.31
2023-04-09T07:01:12.879Z,101221.59
2023-04-09T07:03:41.005Z,101215.31
2023-04-09T07:06:08.835Z,101213.47
2023-04-09T07:08:36.913Z,101215.94
2023-04-09T07:11:05.831Z,101212.38
2023-04-09T07:13:33.729Z,101206.16
2023-04-09T07:16:03.128Z,101214.06
2023-04-09T07:18:31.182Z,101217.34
2023-04-09T07:20:59.505Z,101212.78
2023-04-09T07:23:27.319Z,101212.97
2023-04-09T07:25:55.752Z,101222.66
2023-04-09T07:28:23.590Z,101217.13
2023-04-09T07:30:51.578Z,101225.03
2023-04-09T07:33:19.385Z,101216.13
2023-04-09T07:35:47.324Z,101226.53
2023-04-09T07:38:20.727Z,101227.22
2023-04-09T07:40:48.520Z,101229.63
2023-04-09T07:43:16.910Z,101218.81
2023-04-09T07:45:44.747Z,101219.66
2023-04-09T07:48:13.569Z,101239.88
2023-04-09T07:50:41.341Z,101224.81
2023-04-09T07:53:09.411Z,101241.47
2023-04-09T07:55:37.414Z,101238.69
2023-04-09T07:58:07.086Z,101229.03
2023-04-09T08:00:35.052Z,101241.09
2023-04-09T08:03:03.975Z,101227.84
2023-04-09T08:05:32.460Z,101227.44
2023-04-09T08:08:00.591Z,101235.16
2023-04-09T08:10:28.452Z,101224.34
2023-04-09T08:12:56.296Z,101228.41
2023-04-09T08:15:25.246Z,101224.56
2023-04-09T08:17:53.166Z,101230.41
2023-04-09T08:20:21.389Z,101228.31
2023-04-09T08:22:49.208Z,101231.53
2023-04-09T08:25:17.328Z,101225.31
2023-04-09T08:27:47.045Z,101240.97
2023-04-09T08:30:17.539Z,101237.19
2023-04-09T08:32:47.129Z,101223.91
2023-04-09T08:35:15.943Z,101231.72
2023-04-09T08:37:45.736Z,101235.94
2023-04-09T08:40:13.803Z,101237.50
2023-04-09T08:42:46.617Z,101240.91
2023-04-09T08:45:14.722Z,101236.47
2023-04-09T08:47:43.678Z,101242.38
2023-04-09T08:50:13.136Z,101234.19
2023-04-09T08:52:41.688Z,101236.69
2023-04-09T08:55:12.234Z,101224.03
2023-04-09T08:57:41.080Z,101227.66
2023-04-09T09:00:09.859Z,101244.41
2023-04-09T09:02:39.985Z,101239.91
2023-04-09T09:05:09.264Z,101234.56
2023-04-09T09:07:38.928Z,101243.16
2023-04-09T09:10:08.124Z,101237.41
2023-04-09T09:12:41.627Z,101242.41
2023-04-09T09:15:28.135Z,101239.03
2023-04-09T09:17:59.848Z,101242.59
2023-04-09T09:20:29.143Z,101239.88
2023-04-09T09:22:57.586Z,101238.09
2023-04-09T09:25:26.405Z,101240.69
2023-04-09T09:27:54.875Z,101243.09
2023-04-09T09:30:25.918Z,101245.38
2023-04-09T09:33:04.734Z,101243.09
2023-04-09T09:35:51.959Z,101241.69
2023-04-09T09:38:20.883Z,101248.41
2023-04-09T09:40:52.469Z,101239.84
2023-04-09T09:43:20.739Z,101241.94
2023-04-09T09:45:49.453Z,101240.59
2023-04-09T09:48:17.198Z,101243.09
2023-04-09T09:50:48.214Z,101234.72
2023-04-09T09:53:22.585Z,101222.00
2023-04-09T09:55:54.358Z,101230.88
2023-04-09T09:58:40.288Z,101228.41
2023-04-09T10:01:11.877Z,101228.28
2023-04-09T10:03:43.073Z,101226.94
2023-04-09T10:06:13.082Z,101227.75
2023-04-09T10:08:43.005Z,101227.25
2023-04-09T10:11:12.458Z,101212.84
2023-04-09T10:13:46.667Z,101211.41
2023-04-09T10:16:16.764Z,101208.44
2023-04-09T10:18:44.995Z,101210.81
2023-04-09T10:22:04.469Z,101213.16
2023-04-09T10:24:34.870Z,101210.47
2023-04-09T10:27:17.226Z,101203.34
2023-04-09T10:29:48.763Z,101212.13
2023-04-09T10:32:23.891Z,101189.97
2023-04-09T10:34:52.195Z,101201.47
2023-04-09T10:37:50.932Z,101196.00
2023-04-09T10:40:24.085Z,101189.03
2023-04-09T10:42:52.746Z,101192.09
2023-04-09T10:45:22.556Z,101182.88
2023-04-09T10:47:53.923Z,101185.88
2023-04-09T10:50:23.920Z,101191.88
2023-04-09T10:52:54.961Z,101184.47
2023-04-09T10:55:42.040Z,101188.34
2023-04-09T10:58:13.717Z,101191.13
2023-04-09T11:00:47.520Z,101196.19
2023-04-09T11:03:33.017Z,101190.59
2023-04-09T11:06:06.017Z,101181.66
2023-04-09T11:08:35.084Z,101176.09
2023-04-09T11:11:03.598Z,101186.50
2023-04-09T11:13:32.922Z,101172.69
2023-04-09T11:16:03.223Z,101179.41
2023-04-09T11:18:33.850Z,101195.88
2023-04-09T11:21:04.440Z,101179.69
2023-04-09T11:23:33.925Z,101176.75
2023-04-09T11:26:02.441Z,101162.59
2023-04-09T11:28:30.752Z,101175.56
2023-04-09T11:30:58.610Z,101170.81
2023-04-09T11:33:34.253Z,101165.53
2023-04-09T11:36:06.410Z,101166.22
2023-04-09T11:38:38.453Z,101166.78
2023-04-09T11:41:06.322Z,101169.13
2023-04-09T11:43:37.704Z,101158.13
2023-04-09T11:46:08.009Z,101164.47
2023-04-09T11:48:36.346Z,101172.06
2023-04-09T11:51:04.560Z,101172.69
2023-04-09T11:53:32.446Z,101165.72
2023-04-09T11:56:00.750Z,101172.84
2023-04-09T11:58:28.614Z,101166.22
2023-04-09T12:00:59.270Z,101158.50
2023-04-09T12:03:33.257Z,101154.63
2023-04-09T12:06:05.726Z,101156.81
2023-04-09T12:08:37.519Z,101159.81
2023-04-09T12:11:15.505Z,101157.03
2023-04-09T12:13:44.599Z,101166.06
2023-04-09T12:16:13.365Z,101169.63
2023-04-09T12:18:41.522Z,101158.09
2023-04-09T12:21:09.533Z,101159.19
2023-04-09T12:23:37.409Z,101163.94
2023-04-09T12:26:05.189Z,101145.19
2023-04-09T12:28:33.086Z,101141.28
2023-04-09T12:31:01.242Z,101150.63
2023-04-09T12:33:29.050Z,101134.38
2023-04-09T12:35:58.403Z,101147.84
2023-04-09T12:38:26.787Z,101140.63
2023-04-09T12:40:54.623Z,101150.44
2023-04-09T12:43:22.368Z,101146.00
2023-04-09T12:45:50.296Z,101135.22
2023-04-09T12:48:18.059Z,101140.81
2023-04-09T12:50:48.357Z,101134.88
2023-04-09T12:53:16.706Z,101132.63
2023-04-09T12:55:46.086Z,101135.28
2023-04-09T12:58:13.888Z,101124.50
2023-04-09T13:00:43.691Z,101124.41
2023-04-09T13:03:11.940Z,101124.97
2023-04-09T13:05:40.028Z,101111.34
2023-04-09T13:08:08.068Z,101116.88
2023-04-09T13:10:36.905Z,101113.72
2023-04-09T13:13:04.675Z,101115.63
2023-04-09T13:15:32.527Z,101110.41
2023-04-09T13:18:00.457Z,101112.41
2023-04-09T13:20:28.347Z,101113.41
2023-04-09T13:22:56.334Z,101098.16
2023-04-09T13:25:24.459Z,101097.03
2023-04-09T13:27:52.898Z,101093.22
2023-04-09T13:30:22.923Z,101086.09
2023-04-09T13:32:50.964Z,101091.38
2023-04-09T13:35:19.178Z,101087.56
2023-04-09T13:37:47.280Z,101082.19
2023-04-09T13:40:16.280Z,101080.47
2023-04-09T13:42:44.139Z,101077.91
2023-04-09T13:45:12.122Z,101071.50
2023-04-09T13:47:39.930Z,101070.47
2023-04-09T13:50:10.225Z,101061.34
2023-04-09T13:52:38.883Z,101070.94
2023-04-09T13:55:08.020Z,101059.16
2023-04-09T13:57:35.870Z,101060.28
2023-04-09T14:00:05.432Z,101058.66
2023-04-09T14:02:36.176Z,101064.41
2023-04-09T14:05:04.227Z,101050.31
2023-04-09T14:07:32.208Z,101047.28
2023-04-09T14:10:00.093Z,101062.47
2023-04-09T14:12:28.213Z,101052.09
2023-04-09T14:14:56.073Z,101048.53
2023-04-09T14:17:25.514Z,101046.81
2023-04-09T14:19:53.324Z,101053.88
2023-04-09T14:22:21.209Z,101045.94
2023-04-09T14:24:49.414Z,101044.13
2023-04-09T14:27:17.358Z,101042.28
2023-04-09T14:29:50.474Z,101037.00
2023-04-09T14:32:18.384Z,101032.75
2023-04-09T14:34:46.259Z,101021.97
2023-04-09T14:37:14.388Z,101027.88
2023-04-09T14:39:42.217Z,101018.94
2023-04-09T14:42:11.106Z,101030.50
2023-04-09T14:44:39.042Z,101018.53
2023-04-09T14:47:07.198Z,100999.59
2023-04-09T14:49:36.650Z,101010.88
2023-04-09T14:52:04.862Z,101010.59
2023-04-09T14:54:33.795Z,101014.25
2023-04-09T14:57:02.909Z,101014.97
2023-04-09T14:59:30.695Z,101003.06
2023-04-09T15:01:58.866Z,101010.19
2023-04-09T15:04:27.491Z,101008.63
2023-04-09T15:06:55.706Z,100999.31
2023-04-09T15:09:24.180Z,100999.50
2023-04-09T15:11:54.012Z,100997.66
2023-04-09T15:14:25.968Z,100998.88
2023-04-09T15:16:55.935Z,100991.97
2023-04-09T15:19:23.837Z,100998.00
2023-04-09T15:21:56.437Z,100990.19
2023-04-09T15:24:24.273Z,100982.22
2023-04-09T15:26:53.896Z,100994.09
2023-04-09T15:29:22.145Z,101000.44
2023-04-09T15:31:53.131Z,100985.50
2023-04-09T15:34:23.439Z,101000.00
2023-04-09T15:36:51.494Z,100995.47
2023-04-09T15:39:19.781Z,100988.19
2023-04-09T15:41:47.793Z,100987.16
2023-04-09T15:44:15.893Z,100979.78
2023-04-09T15:46:43.633Z,100992.03
2023-04-09T15:49:11.440Z,100996.53
2023-04-09T15:51:39.190Z,100990.28
2023-04-09T15:54:07.051Z,100986.47
2023-04-09T15:56:36.960Z,100976.84
2023-04-09T15:59:05.414Z,100981.09
2023-04-09T16:01:36.088Z,100980.66
2023-04-09T16:04:05.201Z,100984.03
2023-04-09T16:06:34.415Z,100973.19
2023-04-09T16:09:02.596Z,100979.09
2023-04-09T16:11:30.580Z,100977.06
2023-04-09T16:13:58.995Z,100975.28
2023-04-09T16:16:26.873Z,100968.34
2023-04-09T16:18:55.077Z,100970.59
2023-04-09T16:21:23.042Z,100974.31
2023-04-09T16:23:51.824Z,100962.84
2023-04-09T16:26:19.686Z,100968.59
2023-04-09T16:28:49.098Z,100972.16
2023-04-09T16:31:17.074Z,100969.88
2023-04-09T16:33:44.909Z,100980.47
2023-04-09T16:36:13.581Z,100972.50
2023-04-09T16:38:41.525Z,100972.50
2023-04-09T16:41:11.653Z,100976.94
2023-04-09T16:43:39.470Z,100973.72
2023-04-09T16:46:07.648Z,100976.06
2023-04-09T16:48:37.093Z,100984.56
2023-04-09T16:51:06.924Z,100979.41
2023-04-09T16:53:38.400Z,100981.34
2023-04-09T16:56:07.837Z,100976.22
2023-04-09T16:58:35.826Z,100973.59
2023-04-09T17:01:04.183Z,100963.72
2023-04-09T17:03:32.233Z,100965.09
2023-04-09T17:06:00.419Z,100964.13
2023-04-09T17:08:28.319Z,100971.19
2023-04-09T17:11:02.076Z,100969.75
2023-04-09T17:13:34.190Z,100973.50
2023-04-09T17:16:03.253Z,100972.31
2023-04-09T17:18:31.373Z,100976.94
2023-04-09T17:20:59.849Z,100981.75
2023-04-09T17:23:27.711Z,100981.75
2023-04-09T17:25:58.266Z,100985.59
2023-04-09T17:28:27.541Z,100987.59
2023-04-09T17:30:55.628Z,100986.91
2023-04-09T17:33:23.433Z,100996.84
2023-04-09T17:35:51.299Z,100996.06
2023-04-09T17:38:21.229Z,100999.00
2023-04-09T17:40:48.996Z,101000.09
2023-04-09T17:43:17.570Z,101003.75
2023-04-09T17:45:47.320Z,101015.78
2023-04-09T17:48:15.258Z,101007.84
2023-04-09T17:50:43.100Z,101008.09
2023-04-09T17:53:11.559Z,101014.50
2023-04-09T17:55:44.806Z,101012.75
2023-04-09T17:58:12.527Z,101014.66
2023-04-09T18:00:40.270Z,101001.53
2023-04-09T18:03:11.041Z,101008.00
2023-04-09T18:05:39.521Z,101012.66
2023-04-09T18:08:07.891Z,101013.84
2023-04-09T18:10:36.153Z,101025.53
2023-04-09T18:13:04.655Z,101021.28
2023-04-09T18:15:32.552Z,101017.00
2023-04-09T18:18:00.721Z,101019.03
2023-04-09T18:20:30.482Z,101018.47
2023-04-09T18:23:02.905Z,101010.75
2023-04-09T18:25:30.717Z,101006.47
2023-04-09T18:27:58.872Z,101017.38
2023-04-09T18:30:29.116Z,101027.38
2023-04-09T18:32:58.512Z,101033.06
2023-04-09T18:35:26.308Z,101028.88
2023-04-09T18:37:54.137Z,101032.63
2023-04-09T18:40:22.952Z,101034.78
2023-04-09T18:42:54.689Z,101040.31
2023-04-09T18:45:24.609Z,101050.16
2023-04-09T18:47:52.516Z,101051.31
2023-04-09T18:50:21.113Z,101049.06
2023-04-09T18:52:49.082Z,101047.31
2023-04-09T18:55:18.158Z,101045.72
2023-04-09T18:57:46.201Z,101041.50
2023-04-09T19:00:15.923Z,101055.88
2023-04-09T19:02:44.244Z,101051.66
2023-04-09T19:05:14.175Z,101038.59
2023-04-09T19:07:44.723Z,101046.63
2023-04-09T19:10:13.568Z,101050.34
2023-04-09T19:12:49.698Z,101041.75
2023-04-09T19:15:17.562Z,101046.50
2023-04-09T19:17:45.384Z,101037.91
2023-04-09T19:20:13.908Z,101052.28
2023-04-09T19:22:48.133Z,101051.47
2023-04-09T19:25:17.536Z,101050.72
2023-04-09T19:27:46.166Z,101043.88
2023-04-09T19:30:14.203Z,101057.34
2023-04-09T19:32:42.186Z,101048.72
2023-04-09T19:35:12.638Z,101055.91
2023-04-09T19:37:41.591Z,101062.16
2023-04-09T19:40:10.097Z,101057.00
2023-04-09T19:42:37.960Z,101057.06
2023-04-09T19:45:06.454Z,101049.44
2023-04-09T19:47:34.752Z,101059.34
2023-04-09T19:50:02.660Z,101051.63
2023-04-09T19:52:31.078Z,101050.94
2023-04-09T19:54:58.968Z,101062.59
2023-04-09T19:57:27.147Z,101068.16
2023-04-09T19:59:55.542Z,101063.84
2023-04-09T20:02:25.920Z,101072.81
2023-04-09T20:04:54.515Z,101069.38
2023-04-09T20:07:22.378Z,101068.72
2023-04-09T20:09:50.617Z,101062.63
2023-04-09T20:12:20.972Z,101065.31
2023-04-09T20:14:50.033Z,101053.00
2023-04-09T20:17:19.796Z,101067.41
2023-04-09T20:19:47.639Z,101066.66
2023-04-09T20:22:16.297Z,101077.56
2023-04-09T20:24:44.129Z,101075.09
2023-04-09T20:27:12.729Z,101073.28
2023-04-09T20:29:42.567Z,101078.88
2023-04-09T20:42:50.197Z,101082.69
2023-04-09T20:45:18.771Z,101067.50
2023-04-09T20:47:47.091Z,101067.38
2023-04-09T20:50:15.916Z,101060.34
2023-04-09T20:52:44.859Z,101046.41
2023-04-09T20:55:16.694Z,101063.84
2023-04-09T20:57:45.993Z,101055.13
2023-04-09T21:00:18.148Z,101064.06
2023-04-09T21:02:48.169Z,101048.38
2023-04-09T21:05:23.271Z,101046.56
2023-04-09T21:07:54.345Z,101047.69
2023-04-09T21:10:22.835Z,101050.47
2023-04-09T21:12:51.846Z,101049.47
2023-04-09T21:15:20.182Z,101050.56
2023-04-09T21:17:50.749Z,101040.00
2023-04-09T21:20:19.753Z,101033.91
2023-04-09T21:22:48.804Z,101051.50
2023-04-09T21:25:17.209Z,101058.75
2023-04-09T21:27:46.881Z,101051.81
2023-04-09T21:30:14.974Z,101050.03
2023-04-09T21:32:43.343Z,101057.34
2023-04-09T21:35:11.857Z,101042.34
2023-04-09T21:37:40.135Z,101063.53
2023-04-09T21:40:09.171Z,101062.84
2023-04-09T21:42:39.132Z,101057.00
2023-04-09T21:45:09.178Z,101056.47
2023-04-09T21:47:37.989Z,101063.56
2023-04-09T21:50:08.678Z,101063.88
2023-04-09T21:52:40.413Z,101061.69
2023-04-09T21:55:10.579Z,101054.88
2023-04-09T21:57:39.266Z,101054.28
2023-04-09T22:00:11.133Z,101048.44
2023-04-09T22:02:39.530Z,101039.44
2023-04-09T22:05:10.518Z,101047.44
2023-04-09T22:07:42.640Z,101047.72
2023-04-09T22:10:11.324Z,101051.56
2023-04-09T22:12:39.676Z,101049.31
2023-04-09T22:15:08.771Z,101048.72
2023-04-09T22:17:39.030Z,101048.44
2023-04-09T22:20:10.659Z,101054.63
2023-04-09T22:22:39.761Z,101051.28
2023-04-09T22:25:09.203Z,101040.03
2023-04-09T22:27:37.312Z,101046.16
2023-04-09T22:30:07.585Z,101046.22
2023-04-09T22:32:36.463Z,101052.38
2023-04-09T22:35:07.731Z,101056.84
2023-04-09T22:37:36.287Z,101051.69
2023-04-09T22:40:10.177Z,101049.94
2023-04-09T22:42:40.207Z,101058.75
2023-04-09T22:45:12.041Z,101058.03
2023-04-09T22:47:40.847Z,101069.47
2023-04-09T22:50:14.420Z,101060.78
2023-04-09T22:52:43.434Z,101067.94
2023-04-09T22:55:14.998Z,101064.34
2023-04-09T22:57:46.034Z,101060.22
2023-04-09T23:00:15.996Z,101056.72
2023-04-09T23:02:47.767Z,101054.94
2023-04-09T23:05:17.525Z,101065.50
2023-04-09T23:07:47.010Z,101061.00
2023-04-09T23:10:17.729Z,101043.53
2023-04-09T23:12:48.458Z,101063.63
2023-04-09T23:15:17.249Z,101066.34
2023-04-09T23:17:45.613Z,101065.34
2023-04-09T23:20:15.168Z,101063.50
2023-04-09T23:22:47.041Z,101060.75
2023-04-09T23:25:16.547Z,101062.53
2023-04-09T23:27:44.975Z,101052.88
2023-04-09T23:30:17.273Z,101057.16
2023-04-09T23:32:46.005Z,101051.03
2023-04-09T23:35:14.833Z,101044.81
2023-04-09T23:37:44.039Z,101049.94
2023-04-09T23:40:12.893Z,101051.88
2023-04-09T23:42:41.547Z,101058.81
2023-04-09T23:45:11.682Z,101054.44
2023-04-09T23:47:40.602Z,101056.19
2023-04-09T23:50:09.265Z,101044.78
2023-04-09T23:52:38.976Z,101050.09
2023-04-09T23:55:09.876Z,101051.75
2023-04-09T23:57:38.111Z,101045.69
